createdAt,value
2023-04-13T00:02:24.682Z,2.30
2023-04-13T00:04:52.628Z,2.00
2023-04-13T00:07:19.590Z,2.88
2023-04-13T00:09:47.579Z,2.10
2023-04-13T00:12:16.104Z,2.22
2023-04-13T00:14:44.308Z,2.75
2023-04-13T00:17:11.331Z,2.08
2023-04-13T00:19:40.618Z,2.38
2023-04-13T00:22:09.886Z,2.17
2023-04-13T00:24:37.224Z,2.50
2023-04-13T00:27:05.066Z,2.60
2023-04-13T00:29:32.614Z,2.22
2023-04-13T00:31:59.444Z,2.35
2023-04-13T00:34:26.629Z,2.53
2023-04-13T00:36:54.244Z,3.58
2023-04-13T00:39:23.394Z,2.72
2023-04-13T00:41:53.563Z,2.95
2023-04-13T00:44:21.993Z,1.92
2023-04-13T00:46:51.200Z,2.78
2023-04-13T00:49:18.788Z,3.25
2023-04-13T00:51:45.936Z,4.60
2023-04-13T00:54:17.046Z,2.47
2023-04-13T00:56:54.709Z,2.97
2023-04-13T00:59:23.010Z,3.35
2023-04-13T01:01:56.809Z,3.08
2023-04-13T01:04:28.166Z,3.40
2023-04-13T01:07:20.458Z,2.58
2023-04-13T01:09:52.697Z,2.50
2023-04-13T01:15:18.911Z,2.40
2023-04-13T01:17:54.538Z,2.38
2023-04-13T01:20:22.835Z,2.67
2023-04-13T01:22:56.777Z,3.08
2023-04-13T01:25:40.882Z,2.53
2023-04-13T01:28:10.151Z,3.17
2023-04-13T01:30:39.000Z,2.38
2023-04-13T01:33:06.979Z,2.55
2023-04-13T01:35:34.518Z,2.28
2023-04-13T01:38:01.578Z,2.15
2023-04-13T01:40:30.546Z,2.53
2023-04-13T01:42:58.212Z,2.42
2023-04-13T01:45:37.351Z,2.17
2023-04-13T01:48:32.288Z,1.52
2023-04-13T01:51:06.024Z,2.65
2023-04-13T01:53:38.798Z,2.08
2023-04-13T01:56:06.703Z,2.65
2023-04-13T01:58:35.938Z,2.28
2023-04-13T02:01:09.703Z,2.15
2023-04-13T02:03:38.971Z,2.13
2023-04-13T02:06:07.602Z,2.35
2023-04-13T02:08:37.305Z,2.28
2023-04-13T02:11:04.718Z,2.47
2023-04-13T02:13:31.731Z,1.90
2023-04-13T02:15:59.462Z,2.35
2023-04-13T02:18:26.737Z,2.80
2023-04-13T02:21:03.775Z,2.30
2023-04-13T02:23:32.077Z,2.58
2023-04-13T02:25:59.385Z,2.25
2023-04-13T02:28:30.336Z,1.90
2023-04-13T02:30:59.999Z,3.15
2023-04-13T02:33:33.005Z,3.78
2023-04-13T02:36:04.010Z,2.38
2023-04-13T02:38:32.232Z,2.05
2023-04-13T02:41:00.756Z,1.58
2023-04-13T02:43:29.025Z,1.90
2023-04-13T02:45:59.565Z,3.20
2023-04-13T02:48:27.076Z,2.83
2023-04-13T02:50:54.774Z,1.65
2023-04-13T02:53:22.288Z,2.85
2023-04-13T02:55:54.409Z,1.30
2023-04-13T02:58:23.730Z,1.45
2023-04-13T03:00:51.028Z,1.65
2023-04-13T03:03:19.364Z,2.35
2023-04-13T03:05:47.423Z,1.80
2023-04-13T03:08:14.605Z,1.67
2023-04-13T03:10:41.758Z,1.58
2023-04-13T03:13:11.744Z,2.03
2023-04-13T03:15:38.608Z,1.38
2023-04-13T03:18:05.586Z,1.20
2023-04-13T03:20:32.968Z,1.85
2023-04-13T03:23:01.926Z,1.38
2023-04-13T03:25:29.278Z,1.08
2023-04-13T03:27:56.527Z,1.25
2023-04-13T03:30:23.513Z,1.80
2023-04-13T03:32:52.414Z,1.30
2023-04-13T03:35:20.641Z,1.70
2023-04-13T03:37:48.856Z,1.90
2023-04-13T03:40:15.744Z,1.20
2023-04-13T03:42:44.008Z,1.48
2023-04-13T03:45:13.567Z,1.52
2023-04-13T03:47:40.857Z,2.08
2023-04-13T03:50:09.016Z,1.08
2023-04-13T03:52:36.718Z,1.52
2023-04-13T03:55:04.205Z,1.45
2023-04-13T03:57:31.151Z,1.17
2023-04-13T03:59:58.258Z,3.00
2023-04-13T04:02:25.560Z,1.25
2023-04-13T04:04:52.886Z,1.30
2023-04-13T04:07:23.455Z,1.40
2023-04-13T04:09:51.491Z,1.30
2023-04-13T04:12:18.672Z,1.48
2023-04-13T04:14:45.548Z,1.25
2023-04-13T04:17:12.418Z,1.30
2023-04-13T04:19:39.394Z,1.00
2023-04-13T04:22:09.870Z,1.15
2023-04-13T04:24:37.856Z,1.40
2023-04-13T04:27:06.227Z,1.15
2023-04-13T04:29:36.116Z,2.38
2023-04-13T04:32:04.525Z,2.63
2023-04-13T04:34:32.201Z,1.20
2023-04-13T04:37:03.103Z,2.08
2023-04-13T04:39:33.160Z,1.33
2023-04-13T04:42:05.963Z,1.08
2023-04-13T04:44:37.620Z,2.42
2023-04-13T04:47:04.502Z,1.08
2023-04-13T04:49:31.675Z,1.08
2023-04-13T04:51:58.825Z,0.82
2023-04-13T04:54:27.090Z,1.05
2023-04-13T04:56:58.315Z,1.58
2023-04-13T04:59:26.537Z,1.83
2023-04-13T05:01:53.959Z,1.05
2023-04-13T05:04:21.417Z,0.85
2023-04-13T05:06:48.479Z,1.90
2023-04-13T05:09:15.551Z,1.48
2023-04-13T05:11:44.696Z,1.23
2023-04-13T05:14:11.965Z,1.23
2023-04-13T05:16:38.927Z,1.27
2023-04-13T05:19:09.182Z,1.40
2023-04-13T05:21:38.260Z,1.00
2023-04-13T05:24:06.767Z,2.05
2023-04-13T05:26:36.079Z,1.33
2023-04-13T05:29:04.786Z,1.42
2023-04-13T05:31:31.715Z,0.98
2023-04-13T05:33:58.595Z,1.60
2023-04-13T05:36:26.834Z,1.00
2023-04-13T05:38:54.204Z,1.25
2023-04-13T05:41:21.324Z,1.08
2023-04-13T05:43:51.602Z,1.10
2023-04-13T05:46:18.653Z,1.02
2023-04-13T05:48:46.102Z,1.48
2023-04-13T05:51:13.086Z,0.77
2023-04-13T05:53:40.827Z,1.48
2023-04-13T05:56:10.280Z,1.20
2023-04-13T05:58:37.381Z,1.63
2023-04-13T06:01:07.958Z,0.93
2023-04-13T06:03:35.097Z,0.93
2023-04-13T06:06:04.991Z,0.88
2023-04-13T06:08:35.049Z,1.60
2023-04-13T06:11:03.442Z,0.73
2023-04-13T06:13:32.621Z,1.10
2023-04-13T06:16:00.008Z,0.98
2023-04-13T06:18:27.376Z,1.33
2023-04-13T06:20:54.670Z,1.38
2023-04-13T06:23:22.369Z,0.90
2023-04-13T06:25:50.774Z,1.92
2023-04-13T06:28:17.671Z,1.48
2023-04-13T06:30:45.614Z,1.10
2023-04-13T06:33:12.890Z,1.08
2023-04-13T06:35:43.779Z,2.00
2023-04-13T06:38:12.222Z,1.33
2023-04-13T06:40:39.460Z,0.65
2023-04-13T06:43:13.477Z,1.42
2023-04-13T06:45:47.856Z,2.00
2023-04-13T06:48:14.946Z,0.98
2023-04-13T06:50:41.965Z,0.90
2023-04-13T06:53:10.712Z,1.10
2023-04-13T06:55:37.684Z,1.17
2023-04-13T06:58:06.280Z,0.70
2023-04-13T07:00:34.546Z,1.20
2023-04-13T07:03:02.332Z,0.85
2023-04-13T07:05:30.527Z,1.80
2023-04-13T07:07:57.603Z,1.05
2023-04-13T07:10:24.760Z,2.08
2023-04-13T07:12:52.242Z,0.80
2023-04-13T07:15:19.471Z,2.40
2023-04-13T07:17:46.507Z,0.90
2023-04-13T07:20:14.653Z,3.10
2023-04-13T07:22:41.996Z,1.63
2023-04-13T07:25:09.328Z,1.10
2023-04-13T07:27:36.247Z,1.55
2023-04-13T07:30:06.422Z,1.20
2023-04-13T07:32:33.423Z,1.10
2023-04-13T07:35:02.704Z,1.80
2023-04-13T07:37:29.930Z,1.10
2023-04-13T07:39:56.956Z,1.58
2023-04-13T07:42:25.326Z,1.25
2023-04-13T07:44:56.366Z,0.90
2023-04-13T07:47:23.299Z,0.77
2023-04-13T07:49:50.657Z,1.05
2023-04-13T07:52:20.041Z,0.80
2023-04-13T07:54:47.235Z,1.70
2023-04-13T07:57:14.431Z,1.40
2023-04-13T07:59:41.324Z,1.20
2023-04-13T08:02:11.223Z,1.40
2023-04-13T08:04:39.576Z,1.27
2023-04-13T08:07:10.202Z,1.25
2023-04-13T08:09:44.574Z,1.30
2023-04-13T08:12:11.636Z,1.33
2023-04-13T08:14:38.549Z,1.10
2023-04-13T08:17:06.344Z,1.58
2023-04-13T08:19:34.167Z,0.90
2023-04-13T08:22:03.746Z,1.48
2023-04-13T08:24:31.182Z,1.00
2023-04-13T08:26:59.518Z,0.80
2023-04-13T08:29:27.880Z,1.63
2023-04-13T08:31:56.728Z,1.85
2023-04-13T08:34:23.671Z,2.03
2023-04-13T08:36:51.124Z,1.17
2023-04-13T08:39:20.829Z,1.50
2023-04-13T08:41:48.702Z,1.60
2023-04-13T08:44:15.954Z,1.58
2023-04-13T08:46:45.889Z,1.38
2023-04-13T08:49:13.892Z,1.10
2023-04-13T08:51:43.950Z,3.17
2023-04-13T08:54:13.236Z,1.23
2023-04-13T08:56:46.904Z,1.70
2023-04-13T08:59:16.438Z,1.42
2023-04-13T09:01:46.776Z,1.90
2023-04-13T09:04:18.550Z,1.30
2023-04-13T09:06:50.444Z,1.50
2023-04-13T09:09:19.244Z,0.93
2023-04-13T09:11:48.445Z,1.15
2023-04-13T09:14:24.073Z,1.40
2023-04-13T09:16:51.414Z,1.27
2023-04-13T09:19:30.393Z,1.10
2023-04-13T09:22:00.188Z,1.58
2023-04-13T09:24:38.619Z,1.33
2023-04-13T09:27:05.781Z,1.65
2023-04-13T09:29:33.998Z,1.25
2023-04-13T09:32:07.198Z,1.30
2023-04-13T09:34:36.864Z,1.30
2023-04-13T09:37:13.947Z,1.33
2023-04-13T09:39:41.671Z,1.15
2023-04-13T09:42:12.503Z,1.45
2023-04-13T09:47:20.269Z,1.15
2023-04-13T09:49:47.343Z,1.10
2023-04-13T09:52:23.019Z,1.20
2023-04-13T09:54:54.481Z,1.30
2023-04-13T09:57:29.693Z,1.02
2023-04-13T10:00:14.451Z,1.10
2023-04-13T10:02:42.585Z,1.75
2023-04-13T10:05:10.357Z,1.17
2023-04-13T10:07:38.273Z,1.17
2023-04-13T10:10:06.924Z,1.40
2023-04-13T10:12:36.968Z,1.05
2023-04-13T10:15:15.226Z,1.40
2023-04-13T10:17:57.932Z,1.45
2023-04-13T10:20:26.670Z,1.13
2023-04-13T10:22:55.077Z,1.20
2023-04-13T10:25:32.626Z,1.13
2023-04-13T10:28:01.506Z,1.42
2023-04-13T10:30:29.250Z,1.20
2023-04-13T10:33:09.948Z,1.10
2023-04-13T10:35:39.430Z,0.95
2023-04-13T10:38:09.422Z,1.02
2023-04-13T10:40:47.593Z,0.93
2023-04-13T10:43:27.854Z,1.15
2023-04-13T10:46:12.150Z,0.73
2023-04-13T10:48:54.115Z,1.88
2023-04-13T10:51:21.253Z,1.77
2023-04-13T10:53:48.243Z,0.85
2023-04-13T10:56:19.400Z,1.20
2023-04-13T10:58:53.789Z,1.00
2023-04-13T11:01:21.039Z,1.30
2023-04-13T11:04:01.277Z,1.05
2023-04-13T11:06:42.369Z,1.50
2023-04-13T11:09:12.958Z,1.13
2023-04-13T11:14:09.734Z,1.95
2023-04-13T11:16:46.291Z,1.15
2023-04-13T11:19:15.776Z,1.00
2023-04-13T11:21:45.096Z,1.33
2023-04-13T11:24:14.108Z,1.90
2023-04-13T11:26:42.992Z,1.13
2023-04-13T11:29:18.665Z,1.60
2023-04-13T11:31:45.560Z,1.23
2023-04-13T11:34:13.294Z,2.47
2023-04-13T11:36:41.187Z,1.50
2023-04-13T11:39:11.231Z,1.85
2023-04-13T11:41:42.052Z,2.17
2023-04-13T11:44:12.319Z,0.88
2023-04-13T11:46:39.501Z,1.27
2023-04-13T11:49:10.340Z,1.38
2023-04-13T11:54:09.135Z,0.80
2023-04-13T11:56:36.730Z,0.80
2023-04-13T11:59:03.876Z,0.95
2023-04-13T12:01:34.429Z,1.02
2023-04-13T12:04:14.448Z,1.27
2023-04-13T12:06:49.957Z,0.70
2023-04-13T12:09:21.037Z,0.82
2023-04-13T12:12:11.970Z,0.70
2023-04-13T12:17:35.556Z,1.00
2023-04-13T12:20:03.735Z,1.38
2023-04-13T12:22:55.196Z,2.15
2023-04-13T12:25:35.694Z,1.50
2023-04-13T12:28:03.603Z,1.25
2023-04-13T12:30:32.945Z,0.80
2023-04-13T12:33:01.049Z,1.17
2023-04-13T12:35:29.320Z,0.80
2023-04-13T12:37:57.980Z,0.88
2023-04-13T12:40:25.430Z,0.93
2023-04-13T12:42:52.267Z,1.00
2023-04-13T12:45:23.679Z,1.95
2023-04-13T12:47:52.987Z,1.63
2023-04-13T12:50:19.962Z,1.70
2023-04-13T12:52:47.357Z,1.10
2023-04-13T12:55:14.325Z,1.05
2023-04-13T12:57:45.039Z,1.50
2023-04-13T13:00:13.847Z,1.75
2023-04-13T13:02:41.021Z,1.40
2023-04-13T13:05:09.587Z,0.90
2023-04-13T13:07:37.177Z,0.90
2023-04-13T13:10:09.567Z,1.17
2023-04-13T13:12:42.477Z,0.82
2023-04-13T13:15:15.130Z,0.80
2023-04-13T13:17:43.339Z,2.58
2023-04-13T13:20:13.363Z,1.42
2023-04-13T13:22:42.357Z,1.20
2023-04-13T13:25:10.499Z,1.88
2023-04-13T13:30:10.127Z,1.60
2023-04-13T13:32:39.283Z,0.98
2023-04-13T13:35:08.819Z,0.95
2023-04-13T13:37:36.138Z,0.68
2023-04-13T13:40:13.484Z,1.00
2023-04-13T13:47:39.721Z,0.60
2023-04-13T13:50:07.191Z,0.60
2023-04-13T13:52:34.082Z,1.52
2023-04-13T13:55:03.925Z,1.00
2023-04-13T13:57:31.137Z,1.48
2023-04-13T13:59:58.353Z,1.90
2023-04-13T14:02:27.421Z,1.10
2023-04-13T14:04:54.334Z,0.82
2023-04-13T14:07:24.281Z,0.80
2023-04-13T14:09:51.258Z,1.00
2023-04-13T14:12:18.074Z,0.90
2023-04-13T14:14:46.423Z,0.80
2023-04-13T14:17:13.352Z,2.08
2023-04-13T14:19:41.844Z,1.00
2023-04-13T14:22:10.049Z,1.30
2023-04-13T14:24:37.008Z,0.98
2023-04-13T14:27:03.919Z,2.75
2023-04-13T14:29:31.950Z,1.20
2023-04-13T14:31:58.953Z,1.05
2023-04-13T14:34:25.953Z,0.90
2023-04-13T14:36:54.305Z,1.38
2023-04-13T14:39:21.360Z,1.15
2023-04-13T14:41:49.508Z,1.05
2023-04-13T14:44:16.431Z,1.17
2023-04-13T14:46:43.713Z,1.13
2023-04-13T14:49:11.954Z,0.95
2023-04-13T14:51:42.167Z,0.88
2023-04-13T14:54:09.351Z,0.70
2023-04-13T14:56:40.422Z,0.70
2023-04-13T14:59:07.384Z,1.20
2023-04-13T15:01:35.858Z,1.10
2023-04-13T15:04:03.413Z,1.40
2023-04-13T15:06:30.437Z,3.05
2023-04-13T15:09:00.750Z,2.30
2023-04-13T15:11:29.063Z,1.40
2023-04-13T15:13:55.980Z,1.17
2023-04-13T15:16:22.937Z,0.88
2023-04-13T15:18:49.917Z,1.20
2023-04-13T15:21:16.902Z,1.92
2023-04-13T15:23:43.825Z,1.23
2023-04-13T15:26:17.364Z,1.75
2023-04-13T15:28:45.424Z,1.75
2023-04-13T15:31:13.821Z,1.45
2023-04-13T15:33:40.823Z,1.80
2023-04-13T15:36:09.794Z,1.00
2023-04-13T15:38:36.604Z,0.95
2023-04-13T15:41:03.606Z,0.80
2023-04-13T15:43:30.604Z,1.40
2023-04-13T15:45:59.336Z,1.10
2023-04-13T15:48:26.554Z,1.50
2023-04-13T15:51:00.484Z,0.55
2023-04-13T15:53:28.972Z,0.50
2023-04-13T15:55:57.615Z,0.60
2023-04-13T15:58:25.944Z,0.98
2023-04-13T16:01:08.014Z,0.35
2023-04-13T16:03:36.468Z,0.70
2023-04-13T16:06:04.038Z,1.58
2023-04-13T16:08:31.428Z,0.40
2023-04-13T16:10:58.851Z,0.52
2023-04-13T16:13:37.570Z,1.73
2023-04-13T16:16:14.860Z,0.82
2023-04-13T16:18:44.605Z,0.60
2023-04-13T16:21:12.716Z,0.80
2023-04-13T16:23:40.960Z,0.98
2023-04-13T16:26:11.669Z,0.90
2023-04-13T16:28:38.723Z,0.85
2023-04-13T16:31:10.025Z,1.13
2023-04-13T16:33:36.982Z,0.60
2023-04-13T16:36:03.949Z,0.70
2023-04-13T16:38:31.839Z,0.80
2023-04-13T16:40:58.980Z,1.00
2023-04-13T16:43:26.135Z,0.85
2023-04-13T16:45:54.111Z,0.98
2023-04-13T16:48:23.367Z,0.70
2023-04-13T16:50:59.200Z,0.85
2023-04-13T16:53:27.051Z,0.90
2023-04-13T16:55:55.561Z,0.75
2023-04-13T16:58:22.429Z,0.98
2023-04-13T17:00:51.224Z,0.70
2023-04-13T17:03:18.415Z,1.10
2023-04-13T17:05:46.339Z,1.05
2023-04-13T17:08:15.627Z,1.52
2023-04-13T17:10:44.442Z,1.50
2023-04-13T17:13:11.478Z,1.63
2023-04-13T17:15:38.677Z,2.38
2023-04-13T17:18:05.682Z,1.60
2023-04-13T17:20:32.567Z,2.97
2023-04-13T17:23:00.453Z,2.17
2023-04-13T17:25:27.594Z,1.77
2023-04-13T17:27:55.166Z,1.27
2023-04-13T17:30:22.873Z,3.85
2023-04-13T17:32:50.298Z,3.38
2023-04-13T17:35:17.302Z,1.00
2023-04-13T17:37:44.176Z,0.77
2023-04-13T17:40:11.818Z,1.25
2023-04-13T17:42:38.644Z,1.30
2023-04-13T17:45:06.150Z,0.80
2023-04-13T17:47:40.479Z,0.63
2023-04-13T17:50:07.959Z,0.80
2023-04-13T17:52:35.816Z,0.75
2023-04-13T17:55:05.480Z,1.40
2023-04-13T17:57:34.077Z,0.95
2023-04-13T18:00:01.492Z,1.33
2023-04-13T18:02:28.703Z,1.00
2023-04-13T18:04:55.807Z,2.75
2023-04-13T18:07:23.307Z,1.88
2023-04-13T18:09:50.448Z,1.15
2023-04-13T18:12:17.856Z,1.40
2023-04-13T18:14:44.777Z,1.85
2023-04-13T18:17:11.605Z,1.65
2023-04-13T18:19:38.576Z,2.10
2023-04-13T18:22:05.524Z,2.63
2023-04-13T18:24:32.938Z,2.70
2023-04-13T18:26:59.825Z,2.30
2023-04-13T18:29:26.674Z,1.80
2023-04-13T18:31:54.216Z,1.73
2023-04-13T18:34:21.254Z,1.45
2023-04-13T18:36:48.144Z,0.90
2023-04-13T18:39:17.609Z,2.17
2023-04-13T18:41:46.242Z,1.58
2023-04-13T18:44:13.482Z,2.10
2023-04-13T18:46:41.266Z,1.48
2023-04-13T18:49:08.221Z,2.67
2023-04-13T18:51:37.765Z,2.00
2023-04-13T18:54:04.843Z,1.60
2023-04-13T18:56:32.104Z,1.40
2023-04-13T18:58:59.098Z,1.02
2023-04-13T19:01:26.455Z,2.83
2023-04-13T19:03:54.016Z,1.52
2023-04-13T19:06:21.328Z,2.78
2023-04-13T19:08:48.223Z,2.30
2023-04-13T19:11:16.411Z,1.10
2023-04-13T19:13:45.617Z,2.47
2023-04-13T19:16:14.064Z,2.90
2023-04-13T19:18:41.151Z,4.57
2023-04-13T19:21:11.385Z,3.53
2023-04-13T19:23:40.256Z,3.95
2023-04-13T19:26:07.465Z,3.55
2023-04-13T19:28:34.248Z,3.60
2023-04-13T19:31:02.624Z,4.20
2023-04-13T19:33:29.485Z,3.55
2023-04-13T19:35:59.927Z,2.20
2023-04-13T19:38:27.177Z,2.67
2023-04-13T19:41:04.752Z,3.25
2023-04-13T19:43:31.822Z,2.10
2023-04-13T19:45:59.845Z,3.05
2023-04-13T19:48:27.900Z,2.80
2023-04-13T19:50:54.911Z,2.22
2023-04-13T19:53:22.252Z,2.88
2023-04-13T19:55:53.006Z,2.28
2023-04-13T19:58:22.385Z,1.73
2023-04-13T20:00:50.683Z,1.73
2023-04-13T20:03:20.598Z,2.97
2023-04-13T20:05:48.358Z,3.60
2023-04-13T20:08:16.559Z,3.28
2023-04-13T20:10:44.908Z,3.45
2023-04-13T20:13:14.829Z,4.55
2023-04-13T20:15:44.472Z,2.97
2023-04-13T20:18:11.945Z,3.10
2023-04-13T20:20:42.577Z,2.90
2023-04-13T20:23:11.153Z,2.88
2023-04-13T20:25:39.002Z,2.85
2023-04-13T20:28:07.365Z,2.63
2023-04-13T20:30:35.674Z,2.88
2023-04-13T20:33:07.084Z,2.95
2023-04-13T20:35:35.445Z,2.75
2023-04-13T20:38:02.375Z,3.38
2023-04-13T20:40:29.436Z,2.75
2023-04-13T20:42:58.622Z,2.80
2023-04-13T20:45:30.740Z,2.85
2023-04-13T20:50:48.735Z,3.45
2023-04-13T20:53:17.488Z,2.60
2023-04-13T20:55:44.520Z,3.03
2023-04-13T20:58:13.906Z,2.60
2023-04-13T21:00:43.035Z,2.90
2023-04-13T21:03:10.475Z,4.40
2023-04-13T21:05:37.729Z,3.97
2023-04-13T21:08:04.649Z,4.03
2023-04-13T21:10:31.860Z,3.75
2023-04-13T21:13:00.891Z,4.15
2023-04-13T21:15:27.721Z,5.85
2023-04-13T21:17:55.891Z,5.00
2023-04-13T21:20:22.952Z,4.32
2023-04-13T21:22:49.916Z,4.68
2023-04-13T21:25:16.785Z,4.15
2023-04-13T21:27:43.697Z,4.30
2023-04-13T21:30:11.117Z,5.80
2023-04-13T21:32:38.190Z,4.68
2023-04-13T21:35:06.849Z,4.50
2023-04-13T21:37:33.717Z,5.28
2023-04-13T21:40:02.393Z,4.13
2023-04-13T21:42:29.282Z,5.00
2023-04-13T21:44:57.215Z,4.53
2023-04-13T21:47:26.572Z,5.35
2023-04-13T21:49:53.439Z,4.60
2023-04-13T21:52:24.377Z,4.72
2023-04-13T21:54:51.856Z,3.75
2023-04-13T21:57:20.025Z,4.68
2023-04-13T21:59:46.830Z,3.83
2023-04-13T22:02:14.815Z,4.25
2023-04-13T22:04:43.132Z,3.75
2023-04-13T22:07:09.981Z,3.67
2023-04-13T22:09:37.008Z,5.47
2023-04-13T22:12:04.637Z,5.20
2023-04-13T22:14:31.991Z,5.22
2023-04-13T22:17:00.649Z,6.40
2023-04-13T22:19:27.694Z,5.95
2023-04-13T22:21:56.389Z,6.70
2023-04-13T22:24:24.783Z,4.60
2023-04-13T22:26:51.928Z,5.05
2023-04-13T22:29:18.812Z,3.75
2023-04-13T22:31:46.105Z,3.92
2023-04-13T22:34:13.102Z,3.67
2023-04-13T22:36:41.423Z,3.97
2023-04-13T22:39:08.301Z,5.70
2023-04-13T22:41:37.218Z,4.45
2023-04-13T22:44:04.809Z,3.65
2023-04-13T22:46:31.710Z,3.80
2023-04-13T22:48:59.140Z,5.82
2023-04-13T22:51:29.874Z,2.85
2023-04-13T22:53:58.143Z,5.68
2023-04-13T22:56:25.190Z,4.28
2023-04-13T22:58:54.992Z,3.58
2023-04-13T23:01:21.954Z,3.20
2023-04-13T23:03:49.925Z,3.17
2023-04-13T23:06:16.869Z,2.63
2023-04-13T23:08:43.743Z,3.90
2023-04-13T23:11:11.973Z,3.53
2023-04-13T23:13:41.936Z,2.88
2023-04-13T23:16:08.879Z,2.72
2023-04-13T23:18:35.909Z,3.60
2023-04-13T23:21:13.151Z,3.25
2023-04-13T23:23:40.386Z,3.03
2023-04-13T23:26:07.460Z,5.25
2023-04-13T23:28:34.291Z,3.78
2023-04-13T23:31:08.676Z,3.60
2023-04-13T23:33:36.532Z,3.97
2023-04-13T23:36:04.199Z,2.83
2023-04-13T23:38:32.270Z,3.42
2023-04-13T23:40:59.307Z,5.00
2023-04-13T23:43:26.305Z,2.78
2023-04-13T23:45:53.947Z,2.85
2023-04-13T23:48:26.376Z,2.63
2023-04-13T23:50:53.535Z,2.25
2023-04-13T23:53:20.477Z,2.38
2023-04-13T23:55:47.342Z,2.22
2023-04-13T23:58:14.178Z,2.60
